createdAt,value
2023-01-29T00:01:23.475Z,-0.60
2023-01-29T00:03:51.091Z,-0.60
2023-01-29T00:06:18.315Z,-0.50
2023-01-29T00:08:45.164Z,-0.50
2023-01-29T00:11:12.592Z,-0.40
2023-01-29T00:13:39.483Z,-0.40
2023-01-29T00:16:06.466Z,-0.40
2023-01-29T00:18:33.680Z,-0.50
2023-01-29T00:21:00.629Z,-0.50
2023-01-29T00:23:27.575Z,-0.50
2023-01-29T00:25:54.538Z,-0.50
2023-01-29T00:28:21.434Z,-0.60
2023-01-29T00:30:48.321Z,-0.60
2023-01-29T00:33:15.285Z,-0.60
2023-01-29T00:35:42.363Z,-0.60
2023-01-29T00:38:09.408Z,-0.60
2023-01-29T00:40:57.886Z,-0.60
2023-01-29T00:43:43.498Z,-0.70
2023-01-29T00:46:10.377Z,-0.70
2023-01-29T00:48:37.632Z,-0.70
2023-01-29T00:51:04.831Z,-0.70
2023-01-29T00:53:31.709Z,-0.80
2023-01-29T00:55:58.584Z,-0.80
2023-01-29T00:58:34.612Z,-0.80
2023-01-29T01:01:02.413Z,-0.80
2023-01-29T01:03:29.665Z,-0.80
2023-01-29T01:06:06.684Z,-0.80
2023-01-29T01:08:51.968Z,-0.90
2023-01-29T01:11:18.955Z,-0.90
2023-01-29T01:13:46.125Z,-0.90
2023-01-29T01:16:17.510Z,-0.90
2023-01-29T01:18:44.423Z,-0.90
2023-01-29T01:21:11.523Z,-0.80
2023-01-29T01:23:38.370Z,-0.90
2023-01-29T01:26:08.635Z,-0.90
2023-01-29T01:28:35.738Z,-0.90
2023-01-29T01:31:09.875Z,-0.90
2023-01-29T01:33:37.872Z,-1.00
2023-01-29T01:36:05.394Z,-1.00
2023-01-29T01:38:32.316Z,-1.00
2023-01-29T01:40:59.286Z,-1.00
2023-01-29T01:43:26.195Z,-1.00
2023-01-29T01:45:54.016Z,-1.00
2023-01-29T01:48:25.251Z,-1.00
2023-01-29T01:51:04.156Z,-1.00
2023-01-29T01:53:34.840Z,-1.00
2023-01-29T01:56:03.738Z,-1.10
2023-01-29T01:58:39.027Z,-1.00
2023-01-29T02:01:07.583Z,-1.10
2023-01-29T02:03:57.783Z,-1.10
2023-01-29T02:06:43.226Z,-1.10
2023-01-29T02:09:33.819Z,-1.10
2023-01-29T02:12:01.418Z,-1.20
2023-01-29T02:14:28.681Z,-1.20
2023-01-29T02:16:55.537Z,-1.20
2023-01-29T02:19:31.771Z,-1.20
2023-01-29T02:22:14.073Z,-1.20
2023-01-29T02:24:51.066Z,-1.20
2023-01-29T02:27:41.352Z,-1.20
2023-01-29T02:30:14.599Z,-1.20
2023-01-29T02:32:54.618Z,-1.20
2023-01-29T02:35:30.119Z,-1.20
2023-01-29T02:37:57.084Z,-1.20
2023-01-29T02:40:23.925Z,-1.20
2023-01-29T02:42:58.030Z,-1.10
2023-01-29T02:45:35.551Z,-1.10
2023-01-29T02:48:02.772Z,-1.10
2023-01-29T02:50:34.945Z,-1.00
2023-01-29T02:53:04.671Z,-1.00
2023-01-29T02:55:50.300Z,-1.00
2023-01-29T02:58:29.564Z,-1.00
2023-01-29T03:00:59.341Z,-0.90
2023-01-29T03:03:28.901Z,-0.80
2023-01-29T03:06:00.035Z,-0.80
2023-01-29T03:08:43.394Z,-0.80
2023-01-29T03:11:13.885Z,-0.70
2023-01-29T03:14:01.119Z,-0.70
2023-01-29T03:16:40.434Z,-0.60
2023-01-29T03:19:19.290Z,-0.60
2023-01-29T03:22:00.537Z,-0.60
2023-01-29T03:25:00.244Z,-0.60
2023-01-29T03:27:48.926Z,-0.60
2023-01-29T03:30:36.268Z,-0.50
2023-01-29T03:33:04.916Z,-0.50
2023-01-29T03:35:37.694Z,-0.40
2023-01-29T03:38:05.367Z,-0.40
2023-01-29T03:40:36.379Z,-0.30
2023-01-29T03:43:10.507Z,-0.40
2023-01-29T03:45:47.215Z,-0.30
2023-01-29T03:48:25.676Z,-0.30
2023-01-29T03:50:55.700Z,-0.30
2023-01-29T03:53:37.566Z,-0.30
2023-01-29T03:56:07.731Z,-0.30
2023-01-29T03:58:41.309Z,-0.30
2023-01-29T04:01:18.671Z,-0.20
2023-01-29T04:03:57.636Z,-0.20
2023-01-29T04:06:27.561Z,-0.20
2023-01-29T04:08:54.415Z,-0.20
2023-01-29T04:11:22.554Z,-0.10
2023-01-29T04:13:49.701Z,-0.10
2023-01-29T04:16:35.458Z,0.00
2023-01-29T04:19:02.690Z,0.00
2023-01-29T04:21:32.086Z,0.10
2023-01-29T04:23:59.008Z,0.10
2023-01-29T04:26:44.405Z,0.10
2023-01-29T04:29:30.341Z,0.20
2023-01-29T04:32:15.858Z,0.20
2023-01-29T04:34:45.541Z,0.20
2023-01-29T04:37:31.593Z,0.20
2023-01-29T04:40:26.044Z,0.20
2023-01-29T04:43:03.619Z,0.30
2023-01-29T04:45:40.702Z,0.30
2023-01-29T04:48:22.306Z,0.30
2023-01-29T04:51:04.608Z,0.30
2023-01-29T04:53:50.069Z,0.40
2023-01-29T04:56:26.167Z,0.40
2023-01-29T04:58:59.923Z,0.40
2023-01-29T05:01:30.029Z,0.50
2023-01-29T05:03:57.707Z,0.50
2023-01-29T05:06:25.276Z,0.50
2023-01-29T05:08:52.545Z,0.60
2023-01-29T05:11:20.251Z,0.60
2023-01-29T05:13:48.494Z,0.60
2023-01-29T05:16:19.540Z,0.60
2023-01-29T05:18:47.002Z,0.70
2023-01-29T05:21:14.022Z,0.70
2023-01-29T05:23:53.504Z,0.70
2023-01-29T05:26:40.028Z,0.60
2023-01-29T05:29:06.907Z,0.70
2023-01-29T05:31:33.950Z,0.70
2023-01-29T05:34:00.994Z,0.70
2023-01-29T05:36:27.917Z,0.70
2023-01-29T05:38:54.884Z,0.80
2023-01-29T05:41:21.910Z,0.80
2023-01-29T05:43:48.836Z,0.90
2023-01-29T05:46:15.816Z,0.90
2023-01-29T05:48:42.745Z,0.90
2023-01-29T05:51:09.683Z,1.00
2023-01-29T05:53:36.520Z,1.00
2023-01-29T05:56:04.819Z,1.00
2023-01-29T05:58:32.356Z,1.00
2023-01-29T06:01:07.889Z,1.00
2023-01-29T06:03:34.828Z,1.10
2023-01-29T06:06:02.182Z,1.10
2023-01-29T06:08:29.140Z,1.10
2023-01-29T06:10:55.991Z,1.20
2023-01-29T06:13:23.761Z,1.20
2023-01-29T06:15:50.844Z,1.20
2023-01-29T06:18:17.806Z,1.10
2023-01-29T06:20:44.690Z,1.20
2023-01-29T06:23:11.739Z,1.20
2023-01-29T06:25:38.785Z,1.20
2023-01-29T06:28:05.641Z,1.20
2023-01-29T06:30:32.705Z,1.30
2023-01-29T06:33:01.774Z,1.30
2023-01-29T06:35:29.222Z,1.30
2023-01-29T06:37:56.629Z,1.30
2023-01-29T06:40:23.536Z,1.40
2023-01-29T06:42:50.466Z,1.40
2023-01-29T06:45:17.544Z,1.40
2023-01-29T06:47:44.386Z,1.40
2023-01-29T06:50:11.615Z,1.40
2023-01-29T06:52:38.439Z,1.40
2023-01-29T06:55:05.536Z,1.40
2023-01-29T06:57:32.439Z,1.40
2023-01-29T07:00:00.054Z,1.50
2023-01-29T07:02:27.104Z,1.40
2023-01-29T07:04:54.194Z,1.40
2023-01-29T07:07:21.036Z,1.50
2023-01-29T07:09:47.891Z,1.50
2023-01-29T07:12:14.843Z,1.60
2023-01-29T07:14:41.748Z,1.60
2023-01-29T07:17:08.575Z,1.60
2023-01-29T07:19:35.627Z,1.60
2023-01-29T07:22:03.417Z,1.70
2023-01-29T07:24:30.862Z,1.70
2023-01-29T07:26:57.976Z,1.70
2023-01-29T07:29:24.860Z,1.70
2023-01-29T07:31:51.770Z,1.80
2023-01-29T07:34:18.761Z,1.80
2023-01-29T07:36:45.619Z,1.80
2023-01-29T07:39:12.564Z,1.80
2023-01-29T07:41:39.480Z,1.90
2023-01-29T07:44:06.389Z,1.90
2023-01-29T07:46:33.276Z,1.90
2023-01-29T07:49:00.129Z,1.90
2023-01-29T07:51:26.965Z,1.90
2023-01-29T07:53:53.862Z,1.90
2023-01-29T07:56:20.765Z,2.00
2023-01-29T07:58:47.700Z,2.00
2023-01-29T08:01:14.904Z,2.00
2023-01-29T08:03:41.869Z,2.00
2023-01-29T08:06:09.121Z,2.00
2023-01-29T08:08:36.115Z,2.10
2023-01-29T08:11:03.772Z,2.10
2023-01-29T08:13:30.891Z,2.10
2023-01-29T08:16:01.673Z,2.20
2023-01-29T08:18:28.680Z,2.20
2023-01-29T08:21:02.195Z,2.20
2023-01-29T08:23:29.227Z,2.20
2023-01-29T08:25:56.470Z,2.20
2023-01-29T08:28:23.419Z,2.20
2023-01-29T08:30:50.372Z,2.30
2023-01-29T08:33:19.428Z,2.30
2023-01-29T08:35:51.926Z,2.30
2023-01-29T08:38:18.868Z,2.30
2023-01-29T08:40:45.733Z,2.30
2023-01-29T08:43:13.299Z,2.30
2023-01-29T08:45:42.027Z,2.40
2023-01-29T08:48:09.713Z,2.40
2023-01-29T08:50:36.919Z,2.40
2023-01-29T08:53:05.583Z,2.40
2023-01-29T08:55:32.512Z,2.50
2023-01-29T08:57:59.511Z,2.50
2023-01-29T09:00:26.510Z,2.50
2023-01-29T09:02:53.439Z,2.60
2023-01-29T09:05:20.617Z,2.60
2023-01-29T09:07:47.735Z,2.60
2023-01-29T09:10:14.799Z,2.60
2023-01-29T09:12:41.624Z,2.60
2023-01-29T09:15:09.100Z,2.60
2023-01-29T09:17:36.024Z,2.60
2023-01-29T09:20:03.114Z,2.60
2023-01-29T09:22:30.018Z,2.70
2023-01-29T09:24:56.980Z,2.70
2023-01-29T09:27:24.022Z,2.70
2023-01-29T09:29:51.029Z,2.70
2023-01-29T09:32:37.751Z,2.70
2023-01-29T09:35:05.075Z,2.80
2023-01-29T09:37:31.984Z,2.80
2023-01-29T09:39:58.905Z,2.90
2023-01-29T09:42:28.847Z,2.90
2023-01-29T09:45:03.823Z,2.90
2023-01-29T09:47:32.321Z,2.90
2023-01-29T09:50:01.855Z,2.90
2023-01-29T09:52:34.833Z,3.00
2023-01-29T09:55:12.612Z,3.00
2023-01-29T09:58:00.143Z,3.00
2023-01-29T10:00:27.000Z,3.00
2023-01-29T10:02:53.976Z,3.10
2023-01-29T10:05:23.954Z,3.10
2023-01-29T10:08:06.254Z,3.10
2023-01-29T10:10:33.186Z,3.20
2023-01-29T10:13:18.672Z,3.20
2023-01-29T10:16:18.929Z,3.20
2023-01-29T10:18:45.754Z,3.30
2023-01-29T10:21:15.531Z,3.30
2023-01-29T10:23:46.715Z,3.30
2023-01-29T10:26:13.900Z,3.30
2023-01-29T10:28:42.874Z,3.30
2023-01-29T10:31:16.909Z,3.40
2023-01-29T10:34:01.520Z,3.40
2023-01-29T10:36:34.460Z,3.50
2023-01-29T10:39:01.593Z,3.50
2023-01-29T10:41:28.482Z,3.50
2023-01-29T10:43:55.424Z,3.50
2023-01-29T10:46:40.619Z,3.60
2023-01-29T10:49:07.577Z,3.60
2023-01-29T10:51:46.259Z,3.60
2023-01-29T10:54:33.221Z,3.60
2023-01-29T10:57:00.101Z,3.70
2023-01-29T10:59:45.843Z,3.80
2023-01-29T11:02:15.457Z,3.80
2023-01-29T11:04:42.352Z,3.80
2023-01-29T11:07:09.609Z,3.80
2023-01-29T11:09:40.247Z,3.90
2023-01-29T11:12:13.358Z,3.90
2023-01-29T11:14:45.995Z,3.90
2023-01-29T11:17:17.166Z,4.00
2023-01-29T11:19:46.240Z,4.00
2023-01-29T11:22:17.679Z,4.00
2023-01-29T11:24:44.754Z,4.10
2023-01-29T11:27:22.087Z,4.10
2023-01-29T11:29:50.233Z,4.20
2023-01-29T11:32:28.401Z,4.30
2023-01-29T11:35:06.414Z,4.30
2023-01-29T11:37:35.180Z,4.30
2023-01-29T11:40:02.863Z,4.30
2023-01-29T11:42:31.443Z,4.40
2023-01-29T11:44:58.609Z,4.40
2023-01-29T11:47:30.148Z,4.50
2023-01-29T11:49:58.223Z,4.50
2023-01-29T11:52:27.733Z,4.60
2023-01-29T11:55:01.072Z,4.60
2023-01-29T11:57:31.181Z,4.70
2023-01-29T11:59:59.976Z,4.70
2023-01-29T12:02:43.808Z,4.70
2023-01-29T12:05:21.228Z,4.70
2023-01-29T12:07:50.471Z,4.80
2023-01-29T12:10:32.330Z,4.90
2023-01-29T12:13:11.444Z,4.90
2023-01-29T12:15:39.431Z,5.00
2023-01-29T12:18:25.586Z,4.90
2023-01-29T12:21:02.832Z,5.00
2023-01-29T12:23:42.139Z,5.00
2023-01-29T12:26:13.899Z,5.10
2023-01-29T12:28:46.913Z,5.10
2023-01-29T12:31:20.020Z,5.10
2023-01-29T12:33:51.843Z,5.10
2023-01-29T12:36:18.894Z,5.20
2023-01-29T12:38:47.272Z,5.30
2023-01-29T12:41:14.286Z,5.30
2023-01-29T12:43:44.072Z,5.40
2023-01-29T12:46:20.304Z,5.40
2023-01-29T12:48:48.383Z,5.40
2023-01-29T12:51:24.537Z,5.40
2023-01-29T12:53:56.494Z,5.40
2023-01-29T12:56:29.303Z,5.40
2023-01-29T12:58:56.720Z,5.40
2023-01-29T13:01:28.633Z,5.50
2023-01-29T13:04:18.948Z,5.50
2023-01-29T13:06:49.819Z,5.50
2023-01-29T13:09:25.661Z,5.60
2023-01-29T13:11:58.629Z,5.60
2023-01-29T13:14:29.060Z,5.60
2023-01-29T13:17:03.117Z,5.60
2023-01-29T13:19:33.172Z,5.70
2023-01-29T13:22:01.490Z,5.60
2023-01-29T13:24:33.829Z,5.60
2023-01-29T13:27:01.174Z,5.60
2023-01-29T13:29:29.409Z,5.60
2023-01-29T13:31:58.499Z,5.60
2023-01-29T13:34:33.183Z,5.60
2023-01-29T13:37:04.539Z,5.60
2023-01-29T13:39:37.739Z,5.60
2023-01-29T13:42:16.234Z,5.60
2023-01-29T13:44:47.484Z,5.60
2023-01-29T13:47:22.187Z,5.60
2023-01-29T13:49:56.596Z,5.60
2023-01-29T13:52:26.531Z,5.60
2023-01-29T13:54:57.992Z,5.60
2023-01-29T13:57:36.451Z,5.60
2023-01-29T14:00:03.956Z,5.60
2023-01-29T14:02:31.405Z,5.60
2023-01-29T14:05:17.258Z,5.50
2023-01-29T14:07:44.784Z,5.50
2023-01-29T14:10:17.932Z,5.50
2023-01-29T14:12:45.546Z,5.50
2023-01-29T14:15:20.675Z,5.50
2023-01-29T14:18:00.004Z,5.50
2023-01-29T14:20:43.177Z,5.50
2023-01-29T14:23:21.569Z,5.60
2023-01-29T14:25:48.949Z,5.60
2023-01-29T14:28:23.097Z,5.60
2023-01-29T14:30:50.447Z,5.60
2023-01-29T14:33:36.236Z,5.60
2023-01-29T14:36:09.491Z,5.60
2023-01-29T14:38:36.746Z,5.60
2023-01-29T14:41:05.866Z,5.60
2023-01-29T14:43:33.017Z,5.60
2023-01-29T14:46:19.917Z,5.60
2023-01-29T14:48:48.865Z,5.60
2023-01-29T14:51:16.730Z,5.60
2023-01-29T14:53:56.253Z,5.60
2023-01-29T14:56:46.707Z,5.60
2023-01-29T14:59:19.763Z,5.60
2023-01-29T15:01:58.019Z,5.60
2023-01-29T15:04:27.165Z,5.60
2023-01-29T15:07:06.172Z,5.60
2023-01-29T15:09:55.470Z,5.60
2023-01-29T15:12:28.797Z,5.60
2023-01-29T15:15:14.190Z,5.60
2023-01-29T15:17:59.545Z,5.60
2023-01-29T15:20:42.532Z,5.60
2023-01-29T15:23:28.723Z,5.60
2023-01-29T15:25:57.701Z,5.60
2023-01-29T15:28:24.798Z,5.60
2023-01-29T15:30:56.109Z,5.60
2023-01-29T15:33:23.387Z,5.60
2023-01-29T15:36:05.750Z,5.60
2023-01-29T15:38:34.071Z,5.50
2023-01-29T15:41:02.633Z,5.50
2023-01-29T15:43:31.174Z,5.40
2023-01-29T15:45:59.930Z,5.50
2023-01-29T15:48:41.365Z,5.50
2023-01-29T15:51:09.100Z,5.40
2023-01-29T15:53:42.851Z,5.50
2023-01-29T15:56:13.065Z,5.50
2023-01-29T15:58:40.332Z,5.50
2023-01-29T16:01:07.364Z,5.50
2023-01-29T16:03:37.698Z,5.40
2023-01-29T16:06:07.299Z,5.40
2023-01-29T16:08:34.759Z,5.40
2023-01-29T16:11:06.366Z,5.40
2023-01-29T16:13:34.493Z,5.40
2023-01-29T16:16:01.495Z,5.40
2023-01-29T16:18:35.337Z,5.40
2023-01-29T16:21:13.038Z,5.40
2023-01-29T16:23:48.886Z,5.40
2023-01-29T16:26:18.092Z,5.30
2023-01-29T16:28:45.327Z,5.30
2023-01-29T16:31:14.246Z,5.30
2023-01-29T16:33:43.313Z,5.30
2023-01-29T16:39:39.681Z,5.30
2023-01-29T16:45:27.199Z,5.30
2023-01-29T16:48:02.051Z,5.30
2023-01-29T16:50:43.359Z,5.30
2023-01-29T16:53:23.417Z,5.30
2023-01-29T16:55:51.465Z,5.30
2023-01-29T16:58:20.425Z,5.30
2023-01-29T17:00:49.559Z,5.30
2023-01-29T17:03:17.748Z,5.30
2023-01-29T17:05:45.506Z,5.30
2023-01-29T17:08:18.251Z,5.30
2023-01-29T17:10:47.437Z,5.30
2023-01-29T17:13:29.232Z,5.20
2023-01-29T17:16:03.611Z,5.20
2023-01-29T17:18:30.751Z,5.30
2023-01-29T17:20:57.842Z,5.20
2023-01-29T17:23:24.989Z,5.20
2023-01-29T17:25:52.103Z,5.20
2023-01-29T17:28:19.309Z,5.20
2023-01-29T17:30:56.621Z,5.20
2023-01-29T17:33:32.117Z,5.20
2023-01-29T17:35:59.063Z,5.20
2023-01-29T17:38:26.876Z,5.20
2023-01-29T17:40:59.027Z,5.20
2023-01-29T17:43:26.072Z,5.20
2023-01-29T17:45:53.132Z,5.20
2023-01-29T17:48:23.314Z,5.20
2023-01-29T17:50:53.526Z,5.20
2023-01-29T17:53:23.638Z,5.20
2023-01-29T17:55:51.726Z,5.20
2023-01-29T17:58:18.675Z,5.20
2023-01-29T18:00:46.395Z,5.20
2023-01-29T18:03:13.588Z,5.20
2023-01-29T18:05:43.321Z,5.20
2023-01-29T18:08:33.574Z,5.20
2023-01-29T18:11:00.638Z,5.20
2023-01-29T18:13:27.840Z,5.20
2023-01-29T18:15:54.858Z,5.20
2023-01-29T18:18:23.102Z,5.20
2023-01-29T18:20:50.464Z,5.20
2023-01-29T18:23:17.526Z,5.10
2023-01-29T18:25:44.999Z,5.10
2023-01-29T18:28:14.241Z,5.20
2023-01-29T18:30:42.365Z,5.20
2023-01-29T18:33:09.266Z,5.20
2023-01-29T18:35:36.864Z,5.10
2023-01-29T18:38:04.409Z,5.20
2023-01-29T18:40:31.738Z,5.20
2023-01-29T18:43:01.476Z,5.30
2023-01-29T18:45:28.783Z,5.30
2023-01-29T18:47:56.259Z,5.30
2023-01-29T18:50:25.472Z,5.20
2023-01-29T18:53:01.719Z,5.30
2023-01-29T18:55:28.652Z,5.30
2023-01-29T18:58:27.714Z,5.30
2023-01-29T19:00:43.265Z,5.30
2023-01-29T19:03:10.825Z,5.30
2023-01-29T19:05:40.941Z,5.30
2023-01-29T19:08:08.046Z,5.30
2023-01-29T19:10:37.480Z,5.30
2023-01-29T19:13:06.378Z,5.30
2023-01-29T19:15:34.237Z,5.30
2023-01-29T19:18:01.259Z,5.30
2023-01-29T19:20:28.165Z,5.30
2023-01-29T19:22:55.137Z,5.30
2023-01-29T19:25:22.126Z,5.30
2023-01-29T19:27:49.164Z,5.30
2023-01-29T19:30:16.399Z,5.30
2023-01-29T19:32:43.362Z,5.30
2023-01-29T19:35:14.084Z,5.30
2023-01-29T19:37:41.115Z,5.30
2023-01-29T19:40:08.489Z,5.30
2023-01-29T19:42:37.538Z,5.40
2023-01-29T19:45:06.749Z,5.30
2023-01-29T19:47:38.231Z,5.30
2023-01-29T19:50:05.479Z,5.30
2023-01-29T19:52:50.207Z,5.30
2023-01-29T19:55:18.792Z,5.40
2023-01-29T19:57:48.104Z,5.40
2023-01-29T20:00:17.842Z,5.40
2023-01-29T20:02:44.974Z,5.60
2023-01-29T20:05:13.228Z,5.70
2023-01-29T20:07:41.346Z,5.90
2023-01-29T20:10:11.617Z,6.00
2023-01-29T20:12:38.883Z,6.10
2023-01-29T20:15:07.497Z,6.10
2023-01-29T20:17:34.408Z,6.30
2023-01-29T20:20:01.346Z,6.30
2023-01-29T20:22:32.430Z,6.40
2023-01-29T20:24:59.347Z,6.40
2023-01-29T20:27:26.303Z,6.50
2023-01-29T20:29:53.375Z,6.50
2023-01-29T20:32:20.510Z,6.50
2023-01-29T20:34:52.400Z,6.50
2023-01-29T20:37:19.784Z,6.50
2023-01-29T20:39:46.963Z,6.50
2023-01-29T20:42:14.013Z,6.50
2023-01-29T20:44:41.125Z,6.50
2023-01-29T20:47:08.687Z,6.60
2023-01-29T20:49:35.754Z,6.50
2023-01-29T20:52:02.699Z,6.50
2023-01-29T20:54:30.435Z,6.50
2023-01-29T20:56:59.962Z,6.50
2023-01-29T20:59:29.101Z,6.50
2023-01-29T21:01:56.269Z,6.50
2023-01-29T21:04:23.366Z,6.50
2023-01-29T21:06:54.122Z,6.50
2023-01-29T21:09:21.111Z,6.50
2023-01-29T21:11:48.002Z,6.50
2023-01-29T21:14:14.941Z,6.50
2023-01-29T21:16:41.901Z,6.50
2023-01-29T21:19:09.037Z,6.50
2023-01-29T21:21:35.939Z,6.50
2023-01-29T21:24:02.873Z,6.50
2023-01-29T21:26:30.058Z,6.60
2023-01-29T21:28:57.088Z,6.50
2023-01-29T21:31:24.137Z,6.50
2023-01-29T21:33:51.530Z,6.50
2023-01-29T21:36:21.283Z,6.60
2023-01-29T21:38:48.561Z,6.60
2023-01-29T21:41:15.496Z,6.50
2023-01-29T21:43:42.431Z,6.60
2023-01-29T21:46:12.188Z,6.50
2023-01-29T21:48:40.056Z,6.50
2023-01-29T21:51:07.055Z,6.50
2023-01-29T21:53:34.606Z,6.50
2023-01-29T21:56:02.087Z,6.50
2023-01-29T21:58:29.467Z,6.50
2023-01-29T22:00:56.432Z,6.50
2023-01-29T22:03:23.448Z,6.50
2023-01-29T22:05:50.901Z,6.50
2023-01-29T22:08:18.601Z,6.50
2023-01-29T22:10:45.597Z,6.50
2023-01-29T22:13:12.824Z,6.50
2023-01-29T22:15:40.023Z,6.50
2023-01-29T22:18:06.894Z,6.50
2023-01-29T22:20:33.903Z,6.60
2023-01-29T22:23:00.867Z,6.50
2023-01-29T22:25:28.097Z,6.50
2023-01-29T22:27:55.151Z,6.50
2023-01-29T22:30:23.589Z,6.60
2023-01-29T22:32:50.802Z,6.60
2023-01-29T22:35:17.941Z,6.60
2023-01-29T22:37:45.342Z,6.60
2023-01-29T22:40:13.106Z,6.70
2023-01-29T22:42:40.088Z,6.70
2023-01-29T22:45:07.648Z,6.70
2023-01-29T22:47:34.597Z,6.70
2023-01-29T22:50:01.564Z,6.70
2023-01-29T22:52:28.642Z,6.70
2023-01-29T22:54:55.728Z,6.70
2023-01-29T22:57:22.574Z,6.80
2023-01-29T22:59:49.527Z,6.80
2023-01-29T23:02:16.814Z,6.80
2023-01-29T23:04:43.898Z,6.80
2023-01-29T23:07:11.536Z,6.90
2023-01-29T23:09:38.489Z,6.90
2023-01-29T23:12:08.296Z,6.90
2023-01-29T23:14:35.216Z,6.90
2023-01-29T23:17:02.294Z,7.00
2023-01-29T23:19:32.411Z,7.00
2023-01-29T23:21:59.321Z,6.90
2023-01-29T23:24:26.316Z,7.00
2023-01-29T23:27:11.802Z,7.00
2023-01-29T23:29:38.683Z,7.00
2023-01-29T23:32:05.734Z,7.00
2023-01-29T23:34:32.718Z,7.10
2023-01-29T23:36:59.697Z,7.10
2023-01-29T23:39:26.636Z,7.00
2023-01-29T23:41:53.545Z,7.10
2023-01-29T23:44:21.005Z,7.10
2023-01-29T23:46:48.131Z,7.00
2023-01-29T23:49:15.123Z,7.00
2023-01-29T23:51:42.038Z,7.00
2023-01-29T23:54:09.091Z,7.00
2023-01-29T23:56:35.988Z,7.00
2023-01-29T23:59:02.921Z,7.10
